createdAt,value
2019-01-23T00:00:25.628Z,-1.39
2019-01-23T00:01:26.555Z,-1.39
2019-01-23T00:02:26.458Z,-1.39
2019-01-23T00:03:26.981Z,-1.38
2019-01-23T00:04:26.879Z,-1.39
2019-01-23T00:05:27.295Z,-1.38
2019-01-23T00:06:27.713Z,-1.38
2019-01-23T00:07:28.090Z,-1.38
2019-01-23T00:08:28.241Z,-1.38
2019-01-23T00:09:28.444Z,-1.38
2019-01-23T00:10:28.656Z,-1.39
2019-01-23T00:11:28.915Z,-1.40
2019-01-23T00:12:29.079Z,-1.40
2019-01-23T00:13:29.181Z,-1.38
2019-01-23T00:14:29.395Z,-1.38
2019-01-23T00:15:29.704Z,-1.38
2019-01-23T00:16:29.591Z,-1.37
2019-01-23T00:17:29.714Z,-1.38
2019-01-23T00:18:30.075Z,-1.38
2019-01-23T00:19:30.357Z,-1.36
2019-01-23T00:20:30.979Z,-1.38
2019-01-23T00:21:30.768Z,-1.38
2019-01-23T00:22:31.198Z,-1.38
2019-01-23T00:23:31.565Z,-1.39
2019-01-23T00:24:31.908Z,-1.40
2019-01-23T00:25:32.098Z,-1.40
2019-01-23T00:26:31.868Z,-1.40
2019-01-23T00:27:32.198Z,-1.41
2019-01-23T00:28:32.508Z,-1.41
2019-01-23T00:29:32.861Z,-1.41
2019-01-23T00:30:33.162Z,-1.39
2019-01-23T00:31:33.681Z,-1.39
2019-01-23T00:32:33.453Z,-1.38
2019-01-23T00:33:33.835Z,-1.38
2019-01-23T00:34:34.096Z,-1.38
2019-01-23T00:35:34.410Z,-1.36
2019-01-23T00:36:34.716Z,-1.36
2019-01-23T00:37:35.043Z,-1.39
2019-01-23T00:38:35.369Z,-1.39
2019-01-23T00:39:35.701Z,-1.39
2019-01-23T00:40:36.143Z,-1.37
2019-01-23T00:41:36.785Z,-1.35
2019-01-23T00:42:36.963Z,-1.35
2019-01-23T00:43:36.741Z,-1.34
2019-01-23T00:44:37.270Z,-1.35
2019-01-23T00:45:37.545Z,-1.35
2019-01-23T00:46:37.919Z,-1.35
2019-01-23T00:47:38.181Z,-1.36
2019-01-23T00:48:38.507Z,-1.35
2019-01-23T00:49:38.766Z,-1.36
2019-01-23T00:50:39.259Z,-1.36
2019-01-23T00:51:39.879Z,-1.37
2019-01-23T00:52:40.010Z,-1.37
2019-01-23T00:53:40.030Z,-1.36
2019-01-23T00:54:39.836Z,-1.36
2019-01-23T00:55:40.629Z,-1.37
2019-01-23T00:56:41.245Z,-1.35
2019-01-23T00:57:41.352Z,-1.36
2019-01-23T00:58:41.692Z,-1.36
2019-01-23T00:59:42.090Z,-1.37
2019-01-23T01:00:42.502Z,-1.37
2019-01-23T01:01:42.875Z,-1.36
2019-01-23T01:02:43.331Z,-1.35
2019-01-23T01:03:44.356Z,-1.34
2019-01-23T01:04:43.669Z,-1.35
2019-01-23T01:05:43.873Z,-1.36
2019-01-23T01:07:44.187Z,-1.35
2019-01-23T01:08:44.284Z,-1.35
2019-01-23T01:09:43.693Z,-1.37
2019-01-23T01:10:44.515Z,-1.34
2019-01-23T01:11:44.807Z,-1.35
2019-01-23T01:12:45.007Z,-1.35
2019-01-23T01:13:45.147Z,-1.36
2019-01-23T01:14:45.553Z,-1.33
2019-01-23T01:15:45.879Z,-1.34
2019-01-23T01:16:46.017Z,-1.33
2019-01-23T01:17:46.195Z,-1.33
2019-01-23T01:18:46.200Z,-1.34
2019-01-23T01:19:46.278Z,-1.33
2019-01-23T01:20:46.206Z,-1.32
2019-01-23T01:21:46.619Z,-1.32
2019-01-23T01:22:47.047Z,-1.31
2019-01-23T01:23:47.666Z,-1.31
2019-01-23T01:24:47.869Z,-1.31
2019-01-23T01:25:47.731Z,-1.31
2019-01-23T01:26:48.033Z,-1.29
2019-01-23T01:27:48.541Z,-1.30
2019-01-23T01:28:48.875Z,-1.30
2019-01-23T01:29:49.177Z,-1.30
2019-01-23T01:30:49.502Z,-1.30
2019-01-23T01:31:49.882Z,-1.30
2019-01-23T01:32:50.592Z,-1.29
2019-01-23T01:33:50.801Z,-1.29
2019-01-23T01:34:50.596Z,-1.27
2019-01-23T01:35:50.960Z,-1.29
2019-01-23T01:36:51.441Z,-1.29
2019-01-23T01:37:51.819Z,-1.29
2019-01-23T01:38:52.103Z,-1.28
2019-01-23T01:39:52.441Z,-1.29
2019-01-23T01:40:52.709Z,-1.29
2019-01-23T01:41:53.050Z,-1.27
2019-01-23T01:42:53.423Z,-1.28
2019-01-23T01:43:53.681Z,-1.26
2019-01-23T01:44:54.084Z,-1.25
2019-01-23T01:45:54.653Z,-1.25
2019-01-23T01:46:54.662Z,-1.24
2019-01-23T01:47:54.507Z,-1.24
2019-01-23T01:48:55.613Z,-1.23
2019-01-23T01:49:54.894Z,-1.23
2019-01-23T01:50:56.044Z,-1.22
2019-01-23T01:51:56.150Z,-1.21
2019-01-23T01:52:56.560Z,-1.21
2019-01-23T01:53:56.979Z,-1.22
2019-01-23T01:54:57.290Z,-1.21
2019-01-23T01:55:57.713Z,-1.21
2019-01-23T01:56:58.034Z,-1.20
2019-01-23T01:57:58.334Z,-1.21
2019-01-23T01:59:02.727Z,-1.21
2019-01-23T01:59:58.349Z,-1.19
2019-01-23T02:00:58.459Z,-1.19
2019-01-23T02:01:58.982Z,-1.20
2019-01-23T02:02:59.087Z,-1.19
2019-01-23T02:03:59.396Z,-1.19
2019-01-23T02:04:59.392Z,-1.20
2019-01-23T02:05:59.967Z,-1.19
2019-01-23T02:06:59.705Z,-1.18
2019-01-23T02:08:00.345Z,-1.18
2019-01-23T02:09:00.560Z,-1.18
2019-01-23T02:10:00.454Z,-1.17
2019-01-23T02:11:00.673Z,-1.18
2019-01-23T02:12:01.110Z,-1.17
2019-01-23T02:13:01.503Z,-1.18
2019-01-23T02:14:02.122Z,-1.15
2019-01-23T02:15:02.366Z,-1.18
2019-01-23T02:16:01.632Z,-1.17
2019-01-23T02:17:02.636Z,-1.17
2019-01-23T02:18:02.626Z,-1.16
2019-01-23T02:19:02.334Z,-1.16
2019-01-23T02:20:03.040Z,-1.15
2019-01-23T02:21:03.175Z,-1.14
2019-01-23T02:22:02.455Z,-1.13
2019-01-23T02:23:03.106Z,-1.12
2019-01-23T02:24:03.272Z,-1.12
2019-01-23T02:25:03.063Z,-1.13
2019-01-23T02:26:03.923Z,-1.16
2019-01-23T02:27:04.426Z,-1.12
2019-01-23T02:28:04.207Z,-1.11
2019-01-23T02:29:09.443Z,-1.11
2019-01-23T02:30:05.100Z,-1.11
2019-01-23T02:31:04.939Z,-1.11
2019-01-23T02:32:05.625Z,-1.12
2019-01-23T02:33:05.616Z,-1.16
2019-01-23T02:34:05.671Z,-1.14
2019-01-23T02:35:05.480Z,-1.14
2019-01-23T02:36:05.727Z,-1.13
2019-01-23T02:37:05.963Z,-1.13
2019-01-23T02:38:06.462Z,-1.13
2019-01-23T02:39:06.725Z,-1.11
2019-01-23T02:40:07.144Z,-1.11
2019-01-23T02:41:07.542Z,-1.11
2019-01-23T02:42:07.899Z,-1.11
2019-01-23T02:43:08.263Z,-1.09
2019-01-23T02:44:08.770Z,-1.08
2019-01-23T02:45:08.640Z,-1.10
2019-01-23T02:46:08.962Z,-1.09
2019-01-23T02:47:09.259Z,-1.09
2019-01-23T02:48:10.046Z,-1.11
2019-01-23T02:49:10.030Z,-1.13
2019-01-23T02:50:11.171Z,-1.12
2019-01-23T02:51:11.488Z,-1.10
2019-01-23T02:52:11.806Z,-1.08
2019-01-23T02:53:12.109Z,-1.10
2019-01-23T02:54:12.424Z,-1.08
2019-01-23T02:55:12.736Z,-1.09
2019-01-23T02:56:13.259Z,-1.08
2019-01-23T02:57:13.579Z,-1.10
2019-01-23T02:58:14.088Z,-1.07
2019-01-23T02:59:17.492Z,-1.11
2019-01-23T03:00:14.370Z,-1.10
2019-01-23T03:02:14.112Z,-1.08
2019-01-23T03:03:14.172Z,-1.08
2019-01-23T03:04:14.534Z,-1.07
2019-01-23T03:05:14.951Z,-1.07
2019-01-23T03:06:14.649Z,-1.07
2019-01-23T03:07:15.068Z,-1.06
2019-01-23T03:08:15.480Z,-1.08
2019-01-23T03:09:15.842Z,-1.10
2019-01-23T03:10:15.986Z,-1.09
2019-01-23T03:11:16.073Z,-1.08
2019-01-23T03:12:16.085Z,-1.07
2019-01-23T03:13:16.125Z,-1.06
2019-01-23T03:14:16.244Z,-1.06
2019-01-23T03:15:16.646Z,-1.07
2019-01-23T03:16:16.971Z,-1.07
2019-01-23T03:17:16.830Z,-1.08
2019-01-23T03:18:17.148Z,-1.08
2019-01-23T03:19:17.551Z,-1.07
2019-01-23T03:20:18.164Z,-1.08
2019-01-23T03:21:17.967Z,-1.08
2019-01-23T03:22:18.626Z,-1.08
2019-01-23T03:23:18.523Z,-1.08
2019-01-23T03:24:18.826Z,-1.09
2019-01-23T03:26:19.417Z,-1.10
2019-01-23T03:27:19.240Z,-1.09
2019-01-23T03:28:19.901Z,-1.13
2019-01-23T03:29:24.576Z,-1.10
2019-01-23T03:30:20.120Z,-1.11
2019-01-23T03:31:20.761Z,-1.12
2019-01-23T03:32:20.881Z,-1.11
2019-01-23T03:33:20.712Z,-1.10
2019-01-23T03:34:21.282Z,-1.07
2019-01-23T03:35:21.126Z,-1.08
2019-01-23T03:36:21.701Z,-1.07
2019-01-23T03:37:21.818Z,-1.07
2019-01-23T03:38:22.109Z,-1.08
2019-01-23T03:39:22.049Z,-1.07
2019-01-23T03:40:22.533Z,-1.09
2019-01-23T03:41:23.194Z,-1.09
2019-01-23T03:42:22.968Z,-1.08
2019-01-23T03:43:23.335Z,-1.08
2019-01-23T03:44:23.826Z,-1.08
2019-01-23T03:45:23.669Z,-1.07
2019-01-23T03:46:23.981Z,-1.07
2019-01-23T03:47:24.284Z,-1.08
2019-01-23T03:48:24.967Z,-1.08
2019-01-23T03:49:24.853Z,-1.08
2019-01-23T03:50:25.900Z,-1.07
2019-01-23T03:51:25.900Z,-1.07
2019-01-23T03:52:26.826Z,-1.08
2019-01-23T03:53:27.355Z,-1.08
2019-01-23T03:54:27.254Z,-1.08
2019-01-23T03:55:27.770Z,-1.08
2019-01-23T03:56:27.776Z,-1.06
2019-01-23T03:57:27.783Z,-1.06
2019-01-23T03:58:28.165Z,-1.08
2019-01-23T03:59:32.331Z,-1.06
2019-01-23T04:01:28.729Z,-1.06
2019-01-23T04:02:29.036Z,-1.08
2019-01-23T04:03:29.066Z,-1.07
2019-01-23T04:04:29.979Z,-1.07
2019-01-23T04:05:31.078Z,-1.08
2019-01-23T04:06:29.684Z,-1.08
2019-01-23T04:07:30.305Z,-1.07
2019-01-23T04:08:30.105Z,-1.06
2019-01-23T04:09:30.521Z,-1.07
2019-01-23T04:10:30.851Z,-1.07
2019-01-23T04:11:31.048Z,-1.07
2019-01-23T04:12:31.255Z,-1.07
2019-01-23T04:13:31.455Z,-1.08
2019-01-23T04:14:32.006Z,-1.07
2019-01-23T04:15:31.703Z,-1.09
2019-01-23T04:16:31.449Z,-1.09
2019-01-23T04:17:31.835Z,-1.07
2019-01-23T04:18:32.077Z,-1.07
2019-01-23T04:19:32.387Z,-1.07
2019-01-23T04:20:32.694Z,-1.08
2019-01-23T04:21:33.019Z,-1.09
2019-01-23T04:22:33.332Z,-1.08
2019-01-23T04:23:34.000Z,-1.06
2019-01-23T04:24:33.875Z,-1.06
2019-01-23T04:25:34.343Z,-1.08
2019-01-23T04:26:34.942Z,-1.07
2019-01-23T04:27:34.782Z,-1.07
2019-01-23T04:28:35.106Z,-1.07
2019-01-23T04:29:39.630Z,-1.07
2019-01-23T04:30:35.735Z,-1.07
2019-01-23T04:31:35.972Z,-1.05
2019-01-23T04:32:36.270Z,-1.04
2019-01-23T04:33:36.547Z,-1.06
2019-01-23T04:34:37.227Z,-1.07
2019-01-23T04:35:37.125Z,-1.08
2019-01-23T04:36:37.764Z,-1.12
2019-01-23T04:37:37.619Z,-1.14
2019-01-23T04:38:38.092Z,-1.13
2019-01-23T04:39:38.543Z,-1.12
2019-01-23T04:40:39.039Z,-1.11
2019-01-23T04:41:39.403Z,-1.11
2019-01-23T04:42:39.727Z,-1.11
2019-01-23T04:43:40.598Z,-1.08
2019-01-23T04:44:41.305Z,-1.14
2019-01-23T04:45:41.510Z,-1.12
2019-01-23T04:46:41.822Z,-1.10
2019-01-23T04:47:42.347Z,-1.09
2019-01-23T04:48:42.356Z,-1.08
2019-01-23T04:49:42.057Z,-1.11
2019-01-23T04:50:42.384Z,-1.11
2019-01-23T04:51:43.086Z,-1.11
2019-01-23T04:52:43.096Z,-1.09
2019-01-23T04:53:43.311Z,-1.09
2019-01-23T04:54:43.173Z,-1.10
2019-01-23T04:55:43.647Z,-1.09
2019-01-23T04:56:43.675Z,-1.10
2019-01-23T04:57:44.046Z,-1.08
2019-01-23T04:58:44.229Z,-1.08
2019-01-23T04:59:46.934Z,-1.09
2019-01-23T05:00:45.007Z,-1.10
2019-01-23T05:01:44.688Z,-1.11
2019-01-23T05:02:44.950Z,-1.10
2019-01-23T05:03:45.218Z,-1.10
2019-01-23T05:04:45.521Z,-1.12
2019-01-23T05:05:45.905Z,-1.13
2019-01-23T05:06:46.255Z,-1.12
2019-01-23T05:07:46.267Z,-1.10
2019-01-23T05:08:46.583Z,-1.10
2019-01-23T05:09:47.128Z,-1.10
2019-01-23T05:10:46.944Z,-1.10
2019-01-23T05:11:47.413Z,-1.10
2019-01-23T05:12:47.709Z,-1.10
2019-01-23T05:13:48.098Z,-1.11
2019-01-23T05:14:48.524Z,-1.10
2019-01-23T05:15:48.863Z,-1.11
2019-01-23T05:16:49.130Z,-1.12
2019-01-23T05:17:49.467Z,-1.10
2019-01-23T05:18:49.770Z,-1.10
2019-01-23T05:19:50.167Z,-1.09
2019-01-23T05:20:50.692Z,-1.08
2019-01-23T05:21:51.367Z,-1.08
2019-01-23T05:22:51.166Z,-1.07
2019-01-23T05:23:51.641Z,-1.09
2019-01-23T05:24:51.939Z,-1.08
2019-01-23T05:25:52.853Z,-1.08
2019-01-23T05:26:52.620Z,-1.08
2019-01-23T05:27:53.002Z,-1.09
2019-01-23T05:28:53.163Z,-1.11
2019-01-23T05:29:54.963Z,-1.07
2019-01-23T05:30:54.021Z,-1.10
2019-01-23T05:31:53.840Z,-1.10
2019-01-23T05:32:54.215Z,-1.08
2019-01-23T05:33:54.648Z,-1.08
2019-01-23T05:34:55.373Z,-1.08
2019-01-23T05:35:55.634Z,-1.11
2019-01-23T05:36:56.487Z,-1.08
2019-01-23T05:37:56.500Z,-1.08
2019-01-23T05:38:56.715Z,-1.09
2019-01-23T05:39:57.117Z,-1.09
2019-01-23T05:40:57.641Z,-1.09
2019-01-23T05:41:57.453Z,-1.07
2019-01-23T05:42:57.960Z,-1.08
2019-01-23T05:43:58.168Z,-1.07
2019-01-23T05:44:58.483Z,-1.08
2019-01-23T05:45:58.598Z,-1.08
2019-01-23T05:46:58.611Z,-1.07
2019-01-23T05:47:58.767Z,-1.07
2019-01-23T05:48:59.016Z,-1.08
2019-01-23T05:49:58.917Z,-1.08
2019-01-23T05:50:59.501Z,-1.08
2019-01-23T05:51:59.558Z,-1.08
2019-01-23T05:52:59.618Z,-1.06
2019-01-23T05:53:59.882Z,-1.11
2019-01-23T05:54:59.992Z,-1.11
2019-01-23T05:55:59.669Z,-1.10
2019-01-23T05:57:00.025Z,-1.10
2019-01-23T05:58:00.409Z,-1.11
2019-01-23T05:59:00.817Z,-1.08
2019-01-23T06:00:02.407Z,-1.10
2019-01-23T06:01:01.487Z,-1.11
2019-01-23T06:02:01.679Z,-1.15
2019-01-23T06:03:02.351Z,-1.15
2019-01-23T06:04:02.401Z,-1.16
2019-01-23T06:05:02.409Z,-1.16
2019-01-23T06:06:02.563Z,-1.16
2019-01-23T06:07:03.071Z,-1.14
2019-01-23T06:08:03.144Z,-1.23
2019-01-23T06:09:02.995Z,-1.17
2019-01-23T06:10:03.331Z,-1.17
2019-01-23T06:11:03.381Z,-1.17
2019-01-23T06:12:04.357Z,-1.13
2019-01-23T06:13:04.692Z,-1.15
2019-01-23T06:14:04.594Z,-1.16
2019-01-23T06:15:06.464Z,-1.15
2019-01-23T06:16:05.213Z,-1.14
2019-01-23T06:17:05.146Z,-1.14
2019-01-23T06:18:05.967Z,-1.14
2019-01-23T06:19:05.546Z,-1.17
2019-01-23T06:20:05.955Z,-1.17
2019-01-23T06:21:05.932Z,-1.17
2019-01-23T06:22:06.326Z,-1.17
2019-01-23T06:23:06.926Z,-1.17
2019-01-23T06:24:06.916Z,-1.19
2019-01-23T06:25:07.223Z,-1.23
2019-01-23T06:26:07.763Z,-1.21
2019-01-23T06:27:07.888Z,-1.20
2019-01-23T06:28:07.684Z,-1.19
2019-01-23T06:29:08.514Z,-1.19
2019-01-23T06:30:10.396Z,-1.19
2019-01-23T06:31:08.821Z,-1.20
2019-01-23T06:32:08.667Z,-1.20
2019-01-23T06:33:09.017Z,-1.20
2019-01-23T06:34:09.484Z,-1.20
2019-01-23T06:35:09.779Z,-1.21
2019-01-23T06:36:10.392Z,-1.21
2019-01-23T06:37:11.014Z,-1.23
2019-01-23T06:38:11.131Z,-1.23
2019-01-23T06:39:11.341Z,-1.22
2019-01-23T06:40:11.871Z,-1.23
2019-01-23T06:41:12.263Z,-1.23
2019-01-23T06:42:12.376Z,-1.23
2019-01-23T06:43:12.391Z,-1.24
2019-01-23T06:44:12.287Z,-1.23
2019-01-23T06:45:12.700Z,-1.23
2019-01-23T06:46:12.711Z,-1.23
2019-01-23T06:47:12.934Z,-1.20
2019-01-23T06:48:13.153Z,-1.20
2019-01-23T06:49:13.238Z,-1.21
2019-01-23T06:50:13.659Z,-1.25
2019-01-23T06:51:13.473Z,-1.23
2019-01-23T06:52:13.979Z,-1.23
2019-01-23T06:53:14.189Z,-1.23
2019-01-23T06:54:13.682Z,-1.23
2019-01-23T06:55:13.796Z,-1.24
2019-01-23T06:56:14.005Z,-1.23
2019-01-23T06:57:14.215Z,-1.23
2019-01-23T06:58:14.643Z,-1.24
2019-01-23T06:59:14.691Z,-1.30
2019-01-23T07:00:17.276Z,-1.30
2019-01-23T07:01:14.997Z,-1.26
2019-01-23T07:02:15.475Z,-1.27
2019-01-23T07:03:15.717Z,-1.28
2019-01-23T07:04:16.127Z,-1.29
2019-01-23T07:05:16.319Z,-1.30
2019-01-23T07:06:16.846Z,-1.31
2019-01-23T07:07:16.738Z,-1.31
2019-01-23T07:08:16.582Z,-1.33
2019-01-23T07:09:16.873Z,-1.33
2019-01-23T07:10:17.402Z,-1.33
2019-01-23T07:11:17.533Z,-1.33
2019-01-23T07:12:17.842Z,-1.32
2019-01-23T07:13:18.438Z,-1.34
2019-01-23T07:14:19.159Z,-1.34
2019-01-23T07:15:18.915Z,-1.34
2019-01-23T07:16:21.696Z,-1.35
2019-01-23T07:17:19.179Z,-1.36
2019-01-23T07:18:20.217Z,-1.38
2019-01-23T07:19:19.994Z,-1.39
2019-01-23T07:20:20.222Z,-1.40
2019-01-23T07:21:20.342Z,-1.40
2019-01-23T07:22:20.697Z,-1.41
2019-01-23T07:23:21.113Z,-1.40
2019-01-23T07:24:21.674Z,-1.42
2019-01-23T07:25:21.984Z,-1.43
2019-01-23T07:26:22.394Z,-1.44
2019-01-23T07:27:22.514Z,-1.44
2019-01-23T07:28:22.410Z,-1.45
2019-01-23T07:29:22.908Z,-1.44
2019-01-23T07:30:24.364Z,-1.46
2019-01-23T07:31:23.654Z,-1.46
2019-01-23T07:32:23.669Z,-1.45
2019-01-23T07:33:24.635Z,-1.40
2019-01-23T07:34:23.745Z,-1.40
2019-01-23T07:35:24.501Z,-1.40
2019-01-23T07:36:24.342Z,-1.39
2019-01-23T07:37:24.684Z,-1.41
2019-01-23T07:38:25.540Z,-1.40
2019-01-23T07:39:26.159Z,-1.39
2019-01-23T07:40:26.178Z,-1.39
2019-01-23T07:41:26.589Z,-1.40
2019-01-23T07:42:27.111Z,-1.40
2019-01-23T07:43:27.113Z,-1.40
2019-01-23T07:44:26.867Z,-1.41
2019-01-23T07:45:27.433Z,-1.41
2019-01-23T07:46:27.335Z,-1.41
2019-01-23T07:47:27.759Z,-1.41
2019-01-23T07:48:28.016Z,-1.44
2019-01-23T07:49:28.291Z,-1.44
2019-01-23T07:50:28.355Z,-1.43
2019-01-23T07:51:28.804Z,-1.43
2019-01-23T07:52:29.141Z,-1.42
2019-01-23T07:53:29.531Z,-1.41
2019-01-23T07:54:29.636Z,-1.40
2019-01-23T07:55:29.539Z,-1.38
2019-01-23T07:56:30.063Z,-1.36
2019-01-23T07:57:30.072Z,-1.35
2019-01-23T07:58:30.481Z,-1.34
2019-01-23T07:59:30.924Z,-1.33
2019-01-23T08:00:31.799Z,-1.32
2019-01-23T08:01:31.205Z,-1.32
2019-01-23T08:02:31.865Z,-1.31
2019-01-23T08:03:31.934Z,-1.29
2019-01-23T08:04:32.267Z,-1.28
2019-01-23T08:05:32.481Z,-1.27
2019-01-23T08:06:32.248Z,-1.25
2019-01-23T08:07:32.657Z,-1.24
2019-01-23T08:08:33.049Z,-1.22
2019-01-23T08:09:33.639Z,-1.19
2019-01-23T08:10:33.757Z,-1.17
2019-01-23T08:11:33.524Z,-1.15
2019-01-23T08:12:33.925Z,-1.13
2019-01-23T08:13:34.236Z,-1.12
2019-01-23T08:14:34.648Z,-1.10
2019-01-23T08:15:34.963Z,-1.08
2019-01-23T08:16:35.275Z,-1.08
2019-01-23T08:17:35.674Z,-1.07
2019-01-23T08:18:36.089Z,-1.06
2019-01-23T08:19:36.769Z,-1.05
2019-01-23T08:20:36.981Z,-1.03
2019-01-23T08:21:36.835Z,-1.01
2019-01-23T08:22:37.142Z,-0.99
2019-01-23T08:23:37.573Z,-0.98
2019-01-23T08:24:37.989Z,-0.96
2019-01-23T08:25:38.679Z,-0.95
2019-01-23T08:26:38.607Z,-0.94
2019-01-23T08:27:39.491Z,-0.93
2019-01-23T08:28:39.406Z,-0.92
2019-01-23T08:29:39.768Z,-0.92
2019-01-23T08:30:40.999Z,-0.91
2019-01-23T08:31:40.840Z,-0.91
2019-01-23T08:32:41.887Z,-0.90
2019-01-23T08:33:41.979Z,-0.89
2019-01-23T08:34:41.991Z,-0.88
2019-01-23T08:35:42.397Z,-0.87
2019-01-23T08:36:42.729Z,-0.87
2019-01-23T08:37:43.031Z,-0.86
2019-01-23T08:38:43.289Z,-0.85
2019-01-23T08:39:43.316Z,-0.83
2019-01-23T08:40:43.813Z,-0.82
2019-01-23T08:41:44.003Z,-0.80
2019-01-23T08:42:44.095Z,-0.78
2019-01-23T08:43:44.098Z,-0.76
2019-01-23T08:44:44.717Z,-0.76
2019-01-23T08:45:44.929Z,-0.74
2019-01-23T08:46:45.013Z,-0.72
2019-01-23T08:47:44.930Z,-0.70
2019-01-23T08:48:45.566Z,-0.68
2019-01-23T08:49:45.684Z,-0.65
2019-01-23T08:50:45.702Z,-0.63
2019-01-23T08:51:46.316Z,-0.61
2019-01-23T08:52:46.219Z,-0.59
2019-01-23T08:53:46.276Z,-0.58
2019-01-23T08:54:46.375Z,-0.55
2019-01-23T08:55:53.224Z,-0.53
2019-01-23T08:56:46.630Z,-0.51
2019-01-23T08:57:47.261Z,-0.50
2019-01-23T08:58:47.090Z,-0.48
2019-01-23T08:59:47.565Z,-0.46
2019-01-23T09:00:47.954Z,-0.45
2019-01-23T09:01:48.419Z,-0.44
2019-01-23T09:02:48.809Z,-0.43
2019-01-23T09:03:49.205Z,-0.44
2019-01-23T09:04:49.179Z,-0.44
2019-01-23T09:05:49.863Z,-0.42
2019-01-23T09:06:49.740Z,-0.40
2019-01-23T09:07:50.127Z,-0.39
2019-01-23T09:08:50.698Z,-0.37
2019-01-23T09:09:50.749Z,-0.35
2019-01-23T09:10:50.677Z,-0.34
2019-01-23T09:11:51.086Z,-0.34
2019-01-23T09:12:51.648Z,-0.34
2019-01-23T09:13:51.763Z,-0.32
2019-01-23T09:14:51.599Z,-0.32
2019-01-23T09:15:52.200Z,-0.31
2019-01-23T09:16:52.038Z,-0.29
2019-01-23T09:17:52.901Z,-0.28
2019-01-23T09:18:52.778Z,-0.27
2019-01-23T09:19:53.186Z,-0.26
2019-01-23T09:20:53.484Z,-0.25
2019-01-23T09:21:53.779Z,-0.24
2019-01-23T09:22:54.120Z,-0.23
2019-01-23T09:23:54.419Z,-0.21
2019-01-23T09:24:55.207Z,-0.20
2019-01-23T09:25:55.528Z,-0.17
2019-01-23T09:26:56.161Z,-0.16
2019-01-23T09:27:56.148Z,-0.14
2019-01-23T09:28:57.226Z,-0.15
2019-01-23T09:29:57.190Z,-0.16
2019-01-23T09:30:57.682Z,-0.16
2019-01-23T09:31:57.832Z,-0.16
2019-01-23T09:32:57.928Z,-0.16
2019-01-23T09:33:57.935Z,-0.15
2019-01-23T09:34:58.341Z,-0.14
2019-01-23T09:35:58.370Z,-0.13
2019-01-23T09:36:58.470Z,-0.11
2019-01-23T09:37:58.783Z,-0.10
2019-01-23T09:38:58.716Z,-0.08
2019-01-23T09:39:59.197Z,-0.07
2019-01-23T09:40:59.689Z,-0.07
2019-01-23T09:41:59.715Z,-0.05
2019-01-23T09:42:59.705Z,-0.04
2019-01-23T09:44:00.039Z,-0.07
2019-01-23T09:45:00.630Z,-0.09
2019-01-23T09:46:00.581Z,-0.09
2019-01-23T09:47:00.643Z,-0.09
2019-01-23T09:48:00.805Z,-0.09
2019-01-23T09:49:00.912Z,-0.09
2019-01-23T09:50:01.179Z,-0.12
2019-01-23T09:51:01.433Z,-0.16
2019-01-23T09:52:01.655Z,-0.19
2019-01-23T09:53:02.371Z,-0.18
2019-01-23T09:54:02.574Z,-0.16
2019-01-23T09:55:01.709Z,-0.14
2019-01-23T09:56:02.386Z,-0.13
2019-01-23T09:57:02.081Z,-0.10
2019-01-23T09:58:02.707Z,-0.08
2019-01-23T09:59:02.930Z,-0.06
2019-01-23T10:00:02.809Z,-0.03
2019-01-23T10:01:02.991Z,0.00
2019-01-23T10:02:03.645Z,0.01
2019-01-23T10:03:03.244Z,0.03
2019-01-23T10:04:03.658Z,0.06
2019-01-23T10:05:03.764Z,0.09
2019-01-23T10:06:04.492Z,0.13
2019-01-23T10:07:04.316Z,0.16
2019-01-23T10:08:04.555Z,0.20
2019-01-23T10:09:04.685Z,0.24
2019-01-23T10:10:05.134Z,0.28
2019-01-23T10:11:04.694Z,0.31
2019-01-23T10:12:04.972Z,0.34
2019-01-23T10:13:05.465Z,0.36
2019-01-23T10:14:05.825Z,0.39
2019-01-23T10:15:06.255Z,0.41
2019-01-23T10:16:06.642Z,0.43
2019-01-23T10:17:07.243Z,0.44
2019-01-23T10:18:07.087Z,0.45
2019-01-23T10:19:07.952Z,0.44
2019-01-23T10:20:07.837Z,0.44
2019-01-23T10:21:08.360Z,0.40
2019-01-23T10:22:08.177Z,0.36
2019-01-23T10:23:08.697Z,0.35
2019-01-23T10:24:08.540Z,0.32
2019-01-23T10:25:09.132Z,0.32
2019-01-23T10:27:09.004Z,0.33
2019-01-23T10:28:09.089Z,0.36
2019-01-23T10:29:09.552Z,0.39
2019-01-23T10:30:10.279Z,0.42
2019-01-23T10:31:10.994Z,0.43
2019-01-23T10:32:10.911Z,0.44
2019-01-23T10:33:11.682Z,0.45
2019-01-23T10:34:11.962Z,0.45
2019-01-23T10:36:12.161Z,0.47
2019-01-23T10:37:12.576Z,0.47
2019-01-23T10:38:13.004Z,0.48
2019-01-23T10:39:13.405Z,0.49
2019-01-23T10:40:13.617Z,0.49
2019-01-23T10:41:14.018Z,0.49
2019-01-23T10:42:14.160Z,0.49
2019-01-23T10:43:14.277Z,0.49
2019-01-23T10:44:14.690Z,0.49
2019-01-23T10:45:14.625Z,0.48
2019-01-23T10:46:15.303Z,0.48
2019-01-23T10:47:15.308Z,0.48
2019-01-23T10:48:15.620Z,0.48
2019-01-23T10:49:16.018Z,0.45
2019-01-23T10:50:16.463Z,0.44
2019-01-23T10:51:16.389Z,0.44
2019-01-23T10:52:16.816Z,0.45
2019-01-23T10:53:17.615Z,0.45
2019-01-23T10:54:17.613Z,0.45
2019-01-23T10:55:18.143Z,0.43
2019-01-23T10:56:17.649Z,0.43
2019-01-23T10:57:17.524Z,0.41
2019-01-23T10:58:17.896Z,0.41
2019-01-23T10:59:18.310Z,0.41
2019-01-23T11:00:18.993Z,0.41
2019-01-23T11:01:18.963Z,0.40
2019-01-23T11:02:19.382Z,0.37
2019-01-23T11:03:19.953Z,0.37
2019-01-23T11:04:19.926Z,0.38
2019-01-23T11:05:20.446Z,0.34
2019-01-23T11:06:20.421Z,0.32
2019-01-23T11:07:20.822Z,0.31
2019-01-23T11:08:21.132Z,0.31
2019-01-23T11:09:21.607Z,0.31
2019-01-23T11:10:21.856Z,0.28
2019-01-23T11:11:22.263Z,0.25
2019-01-23T11:12:22.561Z,0.22
2019-01-23T11:13:22.957Z,0.18
2019-01-23T11:14:23.397Z,0.17
2019-01-23T11:15:23.743Z,0.15
2019-01-23T11:16:24.400Z,0.14
2019-01-23T11:17:24.257Z,0.13
2019-01-23T11:18:24.831Z,0.14
2019-01-23T11:19:25.150Z,0.11
2019-01-23T11:20:24.979Z,0.11
2019-01-23T11:21:26.502Z,0.10
2019-01-23T11:22:26.704Z,0.11
2019-01-23T11:23:26.816Z,0.13
2019-01-23T11:24:27.229Z,0.14
2019-01-23T11:25:27.425Z,0.17
2019-01-23T11:26:27.945Z,0.19
2019-01-23T11:27:27.853Z,0.22
2019-01-23T11:28:28.073Z,0.24
2019-01-23T11:29:28.454Z,0.25
2019-01-23T11:30:28.588Z,0.26
2019-01-23T11:31:28.798Z,0.27
2019-01-23T11:32:28.910Z,0.27
2019-01-23T11:33:29.123Z,0.25
2019-01-23T11:34:29.231Z,0.24
2019-01-23T11:35:29.541Z,0.24
2019-01-23T11:36:29.537Z,0.25
2019-01-23T11:37:30.057Z,0.25
2019-01-23T11:38:30.389Z,0.25
2019-01-23T11:39:30.702Z,0.24
2019-01-23T11:40:30.614Z,0.23
2019-01-23T11:41:31.036Z,0.17
2019-01-23T11:42:31.273Z,0.12
2019-01-23T11:43:31.448Z,0.09
2019-01-23T11:44:31.950Z,0.07
2019-01-23T11:45:31.907Z,0.07
2019-01-23T11:46:32.253Z,0.06
2019-01-23T11:47:32.765Z,0.06
2019-01-23T11:48:33.150Z,0.06
2019-01-23T11:49:33.721Z,0.06
2019-01-23T11:50:33.816Z,0.06
2019-01-23T11:51:33.681Z,0.05
2019-01-23T11:52:34.055Z,0.06
2019-01-23T11:53:34.985Z,0.06
2019-01-23T11:54:34.816Z,0.06
2019-01-23T11:55:35.960Z,0.07
2019-01-23T11:56:35.747Z,0.08
2019-01-23T11:57:36.146Z,0.09
2019-01-23T11:58:36.010Z,0.10
2019-01-23T11:59:36.465Z,0.10
2019-01-23T12:00:36.832Z,0.08
2019-01-23T12:01:37.144Z,0.06
2019-01-23T12:02:37.806Z,0.04
2019-01-23T12:03:37.692Z,0.02
2019-01-23T12:04:38.332Z,-0.01
2019-01-23T12:05:38.147Z,-0.04
2019-01-23T12:06:38.482Z,-0.05
2019-01-23T12:07:38.842Z,-0.07
2019-01-23T12:08:39.230Z,-0.09
2019-01-23T12:09:39.756Z,-0.09
2019-01-23T12:10:30.061Z,-0.09
2019-01-23T12:11:30.512Z,-0.10
2019-01-23T12:12:30.735Z,-0.10
2019-01-23T12:13:30.944Z,-0.11
2019-01-23T12:14:31.199Z,-0.10
2019-01-23T12:15:31.357Z,-0.10
2019-01-23T12:16:31.330Z,-0.09
2019-01-23T12:17:31.881Z,-0.08
2019-01-23T12:18:31.966Z,-0.07
2019-01-23T12:19:31.828Z,-0.06
2019-01-23T12:20:32.147Z,-0.04
2019-01-23T12:21:32.642Z,-0.02
2019-01-23T12:22:33.305Z,0.01
2019-01-23T12:23:33.196Z,0.03
2019-01-23T12:24:33.549Z,0.04
2019-01-23T12:25:34.014Z,0.02
2019-01-23T12:26:34.512Z,0.01
2019-01-23T12:27:35.324Z,-0.01
2019-01-23T12:28:35.180Z,-0.01
2019-01-23T12:29:35.531Z,-0.01
2019-01-23T12:30:35.900Z,-0.03
2019-01-23T12:31:36.761Z,-0.03
2019-01-23T12:32:36.821Z,-0.02
2019-01-23T12:33:37.020Z,-0.03
2019-01-23T12:34:36.851Z,-0.03
2019-01-23T12:35:37.166Z,-0.04
2019-01-23T12:36:37.503Z,-0.06
2019-01-23T12:37:37.943Z,-0.08
2019-01-23T12:38:38.195Z,-0.11
2019-01-23T12:39:38.526Z,-0.14
2019-01-23T12:40:39.009Z,-0.17
2019-01-23T12:41:39.423Z,-0.19
2019-01-23T12:42:39.774Z,-0.19
2019-01-23T12:43:40.109Z,-0.21
2019-01-23T12:44:41.494Z,-0.24
2019-01-23T12:45:42.011Z,-0.25
2019-01-23T12:46:42.029Z,-0.27
2019-01-23T12:47:41.821Z,-0.27
2019-01-23T12:48:42.131Z,-0.27
2019-01-23T12:49:42.551Z,-0.26
2019-01-23T12:50:42.965Z,-0.26
2019-01-23T12:51:43.230Z,-0.25
2019-01-23T12:52:43.396Z,-0.23
2019-01-23T12:53:43.400Z,-0.22
2019-01-23T12:54:43.606Z,-0.21
2019-01-23T12:55:43.811Z,-0.19
2019-01-23T12:56:44.237Z,-0.18
2019-01-23T12:57:44.119Z,-0.16
2019-01-23T12:58:44.759Z,-0.17
2019-01-23T12:59:44.661Z,-0.17
2019-01-23T13:00:44.869Z,-0.18
2019-01-23T13:01:46.947Z,-0.18
2019-01-23T13:02:45.305Z,-0.17
2019-01-23T13:03:45.504Z,-0.16
2019-01-23T13:04:45.687Z,-0.18
2019-01-23T13:05:45.927Z,-0.19